Time;durP1;ratioP1;P1;durP2;ratioP2;P2;SDS_P1;SDS_P2;PMS_P1;PMS_P2;Temp;Humidity;BMP_temperature;BMP_pressure;BME280_temperature;BME280_humidity;BME280_pressure;Samples;Min_cycle;Max_cycle;Signal;HPM_P1;HPM_P2
2023/02/27 00:01:28;;;;;;;2.22;1.08;;;;;;;1.73;49.24;100983.22;10354221;28;20052;-56
2023/02/27 00:06:29;;;;;;;3.10;1.05;;;;;;;1.83;49.65;101001.28;10360183;28;20445;-56
2023/02/27 00:11:31;;;;;;;3.22;1.38;;;;;;;1.84;49.61;100996.00;10362928;28;20064;-56
2023/02/27 00:16:33;;;;;;;1.17;1.00;;;;;;;1.71;49.47;100987.66;10360570;28;20049;-56
2023/02/27 00:21:35;;;;;;;3.30;1.15;;;;;;;1.80;49.78;101006.63;10373558;28;20041;-56
2023/02/27 00:26:37;;;;;;;2.10;1.27;;;;;;;1.76;49.66;100992.75;10360214;28;20053;-56
2023/02/27 00:31:41;;;;;;;3.53;1.27;;;;;;;1.67;49.73;100986.03;10361255;28;20220;-57
2023/02/27 00:36:42;;;;;;;1.92;0.90;;;;;;;1.69;49.63;100994.72;10375975;28;20049;-58
2023/02/27 00:41:44;;;;;;;2.45;0.85;;;;;;;1.68;49.78;101000.88;10361364;28;20103;-56
2023/02/27 00:46:45;;;;;;;1.48;0.88;;;;;;;1.59;50.10;100995.91;10362326;28;20085;-56
2023/02/27 00:51:47;;;;;;;3.33;0.80;;;;;;;1.68;49.91;101016.63;10361063;28;20189;-56
2023/02/27 00:56:48;;;;;;;2.33;1.20;;;;;;;1.62;50.50;101008.94;10349758;28;20049;-56
2023/02/27 01:01:50;;;;;;;2.30;1.00;;;;;;;1.64;50.42;101019.41;10375023;28;20127;-58
2023/02/27 01:06:51;;;;;;;2.97;1.08;;;;;;;1.56;50.52;101006.50;10359730;28;20056;-56
2023/02/27 01:11:53;;;;;;;2.60;1.25;;;;;;;1.49;50.36;100999.75;10358133;28;20132;-57
2023/02/27 01:16:54;;;;;;;1.45;0.77;;;;;;;1.50;50.64;100998.81;10371911;28;20087;-57
2023/02/27 01:21:56;;;;;;;3.35;2.05;;;;;;;1.38;50.54;100993.06;10362154;28;20072;-59
2023/02/27 01:26:58;;;;;;;2.05;1.70;;;;;;;1.50;50.57;101009.31;10356395;28;20100;-56
2023/02/27 01:32:00;;;;;;;1.77;0.82;;;;;;;1.50;50.82;101011.94;10360546;28;20512;-56
2023/02/27 01:37:02;;;;;;;2.78;1.63;;;;;;;1.45;51.09;101013.84;10355946;28;20473;-56
2023/02/27 01:42:14;;;;;;;2.22;1.25;;;;;;;1.45;51.15;101003.34;10355807;28;20042;-56
2023/02/27 01:47:16;;;;;;;2.17;1.05;;;;;;;1.39;50.94;101007.03;10355941;28;20046;-56
2023/02/27 01:52:18;;;;;;;2.70;1.27;;;;;;;1.32;51.50;101006.34;10361531;28;20624;-57
2023/02/27 01:57:19;;;;;;;2.65;1.15;;;;;;;1.28;51.72;100996.00;10361111;28;20053;-57
2023/02/27 02:02:28;;;;;;;1.67;0.98;;;;;;;1.34;51.74;101012.41;10361502;28;20365;-56
2023/02/27 02:07:30;;;;;;;1.60;0.90;;;;;;;1.25;51.62;100991.72;10375459;28;20191;-56
2023/02/27 02:12:36;;;;;;;3.88;0.98;;;;;;;1.33;51.74;101000.19;10343392;28;20057;-56
2023/02/27 02:17:59;;;;;;;2.20;0.85;;;;;;;1.30;51.65;100988.94;10358960;28;20061;-56
2023/02/27 02:23:07;;;;;;;1.90;1.27;;;;;;;1.26;52.02;100993.41;10347389;28;20460;-57
2023/02/27 02:28:49;;;;;;;4.75;1.30;;;;;;;1.17;52.07;100983.19;10357008;28;20053;-56
2023/02/27 02:34:22;;;;;;;2.15;0.82;;;;;;;1.11;52.04;100986.88;10356295;28;20049;-56
2023/02/27 02:39:40;;;;;;;2.22;1.00;;;;;;;1.14;51.94;100986.78;10354908;28;20132;-56
2023/02/27 02:44:53;;;;;;;3.55;1.25;;;;;;;1.10;52.73;101005.28;10355337;28;20046;-56
2023/02/27 02:50:05;;;;;;;2.35;1.20;;;;;;;1.08;52.44;100999.19;10353244;28;20101;-56
2023/02/27 02:55:14;;;;;;;1.73;1.02;;;;;;;1.05;52.36;100989.66;10350378;28;20218;-56
2023/02/27 03:00:21;;;;;;;2.35;1.10;;;;;;;1.17;52.32;101019.91;10354580;28;20656;-58
2023/02/27 03:05:31;;;;;;;2.50;1.65;;;;;;;0.98;52.62;101002.09;10325001;28;20111;-56
2023/02/27 03:10:56;;;;;;;2.10;0.77;;;;;;;1.03;52.98;101012.44;10358467;28;20046;-56
2023/02/27 03:15:58;;;;;;;2.35;0.95;;;;;;;1.01;52.46;101017.75;10357360;28;20124;-56
2023/02/27 03:21:10;;;;;;;1.95;1.25;;;;;;;0.95;52.45;101010.03;10355180;28;20053;-56
2023/02/27 03:26:17;;;;;;;1.67;0.90;;;;;;;0.92;52.52;101001.44;10334747;28;20173;-56
2023/02/27 03:31:26;;;;;;;2.13;1.10;;;;;;;0.98;52.65;101020.44;10357632;28;20045;-57
2023/02/27 03:36:42;;;;;;;2.22;0.80;;;;;;;0.95;52.44;101011.81;10362227;28;20234;-56
2023/02/27 03:41:49;;;;;;;1.17;0.83;;;;;;;0.92;51.84;101020.63;10360643;28;20069;-56
2023/02/27 03:46:51;;;;;;;1.80;0.90;;;;;;;0.76;52.19;100998.38;10360658;28;20053;-56
2023/02/27 03:51:53;;;;;;;2.38;0.93;;;;;;;0.90;52.29;101026.81;10361406;28;20184;-57
2023/02/27 03:57:04;;;;;;;1.40;0.80;;;;;;;0.92;51.94;101028.50;10365989;28;20445;-56
2023/02/27 04:02:07;;;;;;;1.77;0.90;;;;;;;0.87;52.22;101035.59;10355880;28;20616;-56
2023/02/27 04:07:36;;;;;;;1.77;0.80;;;;;;;0.85;52.10;101040.03;10360328;28;20049;-57
2023/02/27 04:13:00;;;;;;;5.65;1.75;;;;;;;0.81;52.67;101041.91;10350180;28;20671;-57
2023/02/27 04:18:26;;;;;;;2.50;1.00;;;;;;;0.83;52.47;101047.94;10360554;28;20509;-56
2023/02/27 04:23:41;;;;;;;2.03;1.02;;;;;;;0.76;52.78;101048.16;10357594;28;20053;-59
2023/02/27 04:28:58;;;;;;;1.43;1.33;;;;;;;0.63;53.27;101030.16;10359009;28;20045;-55
2023/02/27 04:34:14;;;;;;;2.50;0.93;;;;;;;0.57;53.46;101030.31;10356920;28;20133;-57
2023/02/27 04:39:23;;;;;;;2.15;1.15;;;;;;;0.62;53.20;101049.38;10354475;28;20052;-56
2023/02/27 04:44:27;;;;;;;2.13;1.35;;;;;;;0.58;53.17;101047.75;10353232;28;20045;-56
2023/02/27 04:49:39;;;;;;;1.75;0.85;;;;;;;0.62;53.09;101049.38;10362962;28;20064;-59
2023/02/27 04:55:01;;;;;;;2.25;0.95;;;;;;;0.63;53.10;101063.34;10358451;28;21774;-56
2023/02/27 05:00:08;;;;;;;2.63;1.95;;;;;;;0.57;52.70;101053.03;10376173;28;20080;-57
2023/02/27 05:05:17;;;;;;;1.95;0.98;;;;;;;0.59;52.42;101065.19;10365935;28;20057;-58
2023/02/27 05:10:56;;;;;;;1.00;0.70;;;;;;;0.61;52.25;101063.38;10364146;28;21473;-56
2023/02/27 05:16:18;;;;;;;3.28;1.20;;;;;;;0.63;52.64;101066.84;10350367;28;20049;-57
2023/02/27 05:21:29;;;;;;;3.63;1.00;;;;;;;0.48;53.22;101064.59;10354756;28;20091;-58
2023/02/27 05:26:42;;;;;;;2.35;1.00;;;;;;;0.49;53.56;101087.28;10353091;28;20069;-57
2023/02/27 05:31:50;;;;;;;1.83;0.90;;;;;;;0.50;54.10;101099.50;10334010;28;20060;-57
2023/02/27 05:37:00;;;;;;;2.05;1.10;;;;;;;0.48;54.10;101093.41;10336006;28;20054;-56
2023/02/27 05:42:12;;;;;;;1.83;1.00;;;;;;;0.15;53.65;101043.59;10344013;28;20053;-56
2023/02/27 05:47:19;;;;;;;3.40;1.23;;;;;;;0.37;54.68;101111.16;10338742;28;20122;-57
2023/02/27 05:52:25;;;;;;;3.88;1.38;;;;;;;0.31;54.66;101105.16;10336208;28;20621;-56
2023/02/27 05:57:39;;;;;;;2.30;1.40;;;;;;;0.39;54.41;101114.59;10334410;28;20116;-56
2023/02/27 06:02:42;;;;;;;3.00;1.10;;;;;;;0.32;54.40;101112.13;10334230;28;20062;-57
2023/02/27 06:07:44;;;;;;;2.15;1.23;;;;;;;0.33;54.67;101121.72;10334084;28;20056;-56
2023/02/27 06:12:47;;;;;;;2.97;1.25;;;;;;;0.32;55.33;101120.00;10346902;28;20148;-56
2023/02/27 06:17:48;;;;;;;2.40;1.02;;;;;;;0.24;55.39;101127.19;10338149;28;20839;-56
2023/02/27 06:22:50;;;;;;;3.05;1.38;;;;;;;0.21;55.15;101118.53;10329289;28;20389;-57
2023/02/27 06:27:52;;;;;;;4.00;1.10;;;;;;;0.03;55.49;101085.78;10333169;28;20053;-55
2023/02/27 06:32:54;;;;;;;2.70;1.10;;;;;;;0.34;55.33;101149.63;10338632;28;20136;-58
2023/02/27 06:37:56;;;;;;;1.67;1.45;;;;;;;0.39;55.57;101152.16;10333595;28;20057;-60
2023/02/27 06:42:58;;;;;;;1.85;1.20;;;;;;;0.40;55.54;101147.75;10326511;28;20102;-58
2023/02/27 06:47:59;;;;;;;2.20;1.58;;;;;;;0.46;55.62;101137.13;10332933;28;20064;-57
2023/02/27 06:53:01;;;;;;;4.05;1.70;;;;;;;0.62;55.22;101153.34;10340915;28;20160;-56
2023/02/27 06:58:02;;;;;;;3.63;2.85;;;;;;;0.77;55.00;101155.56;10332313;28;20429;-58
2023/02/27 07:03:05;;;;;;;3.45;1.10;;;;;;;0.97;54.85;101157.69;10335041;28;20060;-57
2023/02/27 07:08:08;;;;;;;3.22;1.50;;;;;;;1.12;54.70;101152.94;10333525;28;20053;-56
2023/02/27 07:13:10;;;;;;;4.38;2.22;;;;;;;1.29;54.38;101166.47;10332046;28;21452;-56
2023/02/27 07:18:11;;;;;;;3.88;2.75;;;;;;;1.47;54.33;101169.47;10328817;28;20736;-55
2023/02/27 07:23:13;;;;;;;2.10;1.80;;;;;;;1.65;53.64;101170.72;10329089;28;20670;-55
2023/02/27 07:28:14;;;;;;;3.10;1.80;;;;;;;1.80;54.00;101172.03;10325242;28;20380;-57
2023/02/27 07:33:16;;;;;;;2.33;2.00;;;;;;;1.97;53.30;101164.53;10327143;28;20053;-55
2023/02/27 07:38:18;;;;;;;2.90;1.38;;;;;;;2.13;53.27;101159.63;10329482;28;20144;-53
2023/02/27 07:43:19;;;;;;;2.78;1.63;;;;;;;2.24;52.94;101161.97;10327210;28;20642;-54
2023/02/27 07:48:21;;;;;;;2.42;1.67;;;;;;;2.39;53.06;101166.72;10334501;28;20053;-56
2023/02/27 07:53:23;;;;;;;2.83;1.80;;;;;;;2.47;52.10;101166.47;10332433;28;20809;-54
2023/02/27 07:58:24;;;;;;;3.63;1.65;;;;;;;2.70;51.75;101186.75;10330984;28;20179;-54
2023/02/27 08:03:26;;;;;;;3.55;1.60;;;;;;;2.82;51.65;101196.00;10335330;28;20057;-54
2023/02/27 08:08:28;;;;;;;3.53;1.85;;;;;;;2.72;50.87;101161.28;10330000;28;20051;-55
2023/02/27 08:13:30;;;;;;;2.90;1.58;;;;;;;3.03;50.53;101197.06;10334199;28;20410;-54
2023/02/27 08:18:51;;;;;;;3.63;1.88;;;;;;;3.11;50.51;101208.19;10333226;28;20231;-55
2023/02/27 08:23:53;;;;;;;3.83;1.77;;;;;;;3.19;50.20;101203.50;10335936;28;20068;-54
2023/02/27 08:28:55;;;;;;;2.22;1.60;;;;;;;3.16;50.37;101206.25;10354124;28;20046;-54
2023/02/27 08:33:56;;;;;;;1.85;1.50;;;;;;;3.16;50.23;101200.97;10337144;28;20072;-54
2023/02/27 08:39:10;;;;;;;3.88;1.92;;;;;;;3.46;49.49;101208.72;10339059;28;20162;-53
2023/02/27 08:44:11;;;;;;;5.53;2.00;;;;;;;3.60;49.44;101207.38;10334315;28;20509;-53
2023/02/27 08:49:13;;;;;;;2.05;1.65;;;;;;;3.74;49.18;101207.75;10339387;28;20045;-54
2023/02/27 08:54:15;;;;;;;3.17;2.70;;;;;;;4.03;48.36;101197.88;10353470;28;20184;-54
2023/02/27 08:59:17;;;;;;;1.67;1.30;;;;;;;4.36;46.69;101200.13;10345919;28;20100;-55
2023/02/27 09:04:19;;;;;;;1.50;1.40;;;;;;;4.63;45.42;101199.94;10327877;28;20514;-54
2023/02/27 09:09:22;;;;;;;1.30;1.20;;;;;;;4.83;44.66;101212.31;10339394;28;20139;-54
2023/02/27 09:14:24;;;;;;;4.90;2.17;;;;;;;5.17;44.17;101203.84;10342103;28;20501;-54
2023/02/27 09:19:25;;;;;;;1.25;0.85;;;;;;;5.44;44.60;101216.78;10339505;28;20158;-48
2023/02/27 09:24:27;;;;;;;2.17;1.20;;;;;;;5.29;42.03;101219.16;10338366;28;20053;-57
2023/02/27 09:29:28;;;;;;;1.50;1.10;;;;;;;5.43;42.06;101217.69;10338006;28;20065;-55
2023/02/27 09:34:30;;;;;;;1.33;1.23;;;;;;;5.40;41.57;101223.13;10336639;28;20054;-53
2023/02/27 09:39:31;;;;;;;2.28;1.13;;;;;;;5.37;41.64;101225.88;10336651;28;20118;-53
2023/02/27 09:44:54;;;;;;;3.03;1.17;;;;;;;5.27;42.25;101226.28;10333823;28;20834;-55
2023/02/27 09:50:00;;;;;;;1.52;1.10;;;;;;;5.17;41.84;101217.03;10321983;28;20111;-55
2023/02/27 09:55:05;;;;;;;1.23;1.08;;;;;;;4.82;42.87;101229.94;10337778;28;20056;-55
2023/02/27 10:00:14;;;;;;;;;;;;;;;4.65;43.24;101240.31;10339729;28;20080;-55
2023/02/27 10:05:27;;;;;;;2.35;0.82;;;;;;;4.59;42.91;101250.19;10338229;28;20111;-55
2023/02/27 10:10:32;;;;;;;1.40;1.13;;;;;;;4.51;43.21;101246.97;10338999;28;20123;-55
2023/02/27 10:15:40;;;;;;;2.00;1.00;;;;;;;4.59;43.08;101233.47;10336431;28;20057;-55
2023/02/27 10:20:50;;;;;;;3.75;1.48;;;;;;;4.41;42.96;101208.72;10339047;28;20833;-55
2023/02/27 10:25:52;;;;;;;2.50;1.17;;;;;;;4.81;42.71;101245.81;10334795;28;20052;-55
2023/02/27 10:30:57;;;;;;;2.28;1.02;;;;;;;5.10;42.44;101234.06;10337063;28;20058;-55
2023/02/27 10:35:59;;;;;;;2.45;0.98;;;;;;;6.68;39.40;101218.16;10330652;28;20421;-57
2023/02/27 10:41:06;;;;;;;1.67;1.27;;;;;;;8.86;35.91;101217.25;10325158;28;20080;-55
2023/02/27 10:46:14;;;;;;;1.27;0.82;;;;;;;10.95;31.89;101223.84;10325934;28;20053;-56
2023/02/27 10:51:28;;;;;;;1.80;1.10;;;;;;;14.40;27.50;101215.50;10328714;28;20050;-55
2023/02/27 10:56:30;;;;;;;1.38;0.90;;;;;;;12.38;28.73;101223.75;10332504;28;20055;-54
2023/02/27 11:01:43;;;;;;;1.17;1.00;;;;;;;10.30;32.09;101209.41;10332352;28;20053;-55
2023/02/27 11:06:51;;;;;;;5.13;1.00;;;;;;;12.03;29.43;101197.81;10330358;28;20383;-55
2023/02/27 11:11:54;;;;;;;1.02;0.82;;;;;;;14.70;26.46;101190.72;10333434;28;20061;-55
2023/02/27 11:17:02;;;;;;;1.90;0.90;;;;;;;19.41;21.45;101187.53;10336962;28;21128;-56
2023/02/27 11:22:12;;;;;;;6.18;1.10;;;;;;;20.93;19.33;101184.06;10329500;28;20853;-54
2023/02/27 11:27:16;;;;;;;0.93;0.52;;;;;;;20.55;19.31;101174.69;10331192;28;20580;-54
2023/02/27 11:32:18;;;;;;;4.43;0.68;;;;;;;22.16;18.84;101166.69;10347485;28;20060;-55
2023/02/27 11:37:28;;;;;;;1.17;0.50;;;;;;;23.00;17.26;101151.50;10328306;28;20057;-53
2023/02/27 11:42:31;;;;;;;0.57;0.30;;;;;;;22.45;17.66;101156.22;10327660;28;20542;-54
2023/02/27 11:47:36;;;;;;;1.48;0.68;;;;;;;18.45;20.50;101147.78;10325030;28;20058;-54
2023/02/27 11:52:52;;;;;;;2.10;0.40;;;;;;;18.75;21.10;101134.91;10332643;28;20065;-54
2023/02/27 11:58:01;;;;;;;1.95;0.47;;;;;;;22.56;17.22;101124.09;10334704;28;20372;-54
2023/02/27 12:03:12;;;;;;;1.63;0.40;;;;;;;23.36;16.31;101110.97;10342504;28;20050;-53
2023/02/27 12:08:32;;;;;;;1.08;0.50;;;;;;;20.94;18.10;101120.81;10342369;28;20071;-54
2023/02/27 12:13:39;;;;;;;1.38;0.30;;;;;;;19.86;18.61;101107.28;10341850;28;20183;-56
2023/02/27 12:18:52;;;;;;;0.70;0.30;;;;;;;23.01;16.56;101104.34;10344084;28;21657;-54
2023/02/27 12:24:07;;;;;;;1.33;0.32;;;;;;;21.06;17.37;101102.34;10345260;28;20055;-54
2023/02/27 12:29:27;;;;;;;2.25;0.35;;;;;;;19.05;19.27;101095.88;10343677;28;20232;-53
2023/02/27 12:34:32;;;;;;;0.63;0.30;;;;;;;23.40;15.42;101092.41;10342133;28;20053;-54
2023/02/27 12:39:33;;;;;;;0.43;0.20;;;;;;;26.56;13.46;101086.44;10341538;28;20053;-54
2023/02/27 12:44:50;;;;;;;0.95;0.20;;;;;;;26.21;12.81;101081.13;10349190;28;20524;-54
2023/02/27 12:50:05;;;;;;;0.77;0.25;;;;;;;20.97;16.22;101066.34;10343503;28;20184;-56
2023/02/27 12:55:14;;;;;;;0.50;0.20;;;;;;;22.02;15.96;101078.81;10341622;28;20510;-57
2023/02/27 13:00:20;;;;;;;0.50;0.30;;;;;;;17.78;18.69;101080.69;10341705;28;20041;-57
2023/02/27 13:05:44;;;;;;;0.55;0.28;;;;;;;14.56;22.34;101076.63;10357350;28;20065;-58
2023/02/27 13:11:17;;;;;;;0.73;0.30;;;;;;;12.99;23.83;101082.06;10338158;28;20502;-56
2023/02/27 13:16:54;;;;;;;0.60;0.20;;;;;;;12.33;24.55;101079.94;10334064;28;20062;-54
2023/02/27 13:22:13;;;;;;;0.82;0.50;;;;;;;12.54;24.18;101065.94;10331729;28;20060;-57
2023/02/27 13:27:17;;;;;;;1.10;0.32;;;;;;;11.75;25.40;101081.50;10330814;28;20041;-61
2023/02/27 13:32:45;;;;;;;;;;;;;;;11.36;25.27;101080.72;10333588;28;20088;-57
2023/02/27 13:37:56;;;;;;;1.08;0.50;;;;;;;10.82;26.34;101065.81;10341797;28;20795;-56
2023/02/27 13:43:21;;;;;;;0.57;0.40;;;;;;;10.50;26.65;101069.72;10333253;28;20264;-56
2023/02/27 13:48:38;;;;;;;0.50;0.35;;;;;;;12.93;24.39;101074.53;10330189;28;20061;-58
2023/02/27 13:53:40;;;;;;;1.08;0.50;;;;;;;12.79;23.45;101061.38;10338518;28;20045;-56
2023/02/27 13:58:42;;;;;;;0.93;0.40;;;;;;;16.62;19.76;101062.09;10347225;28;20723;-57
2023/02/27 14:03:52;;;;;;;0.75;0.28;;;;;;;21.32;15.58;101057.97;10328878;28;20049;-56
2023/02/27 14:08:56;;;;;;;0.40;0.10;;;;;;;17.76;18.79;101074.59;10337146;28;20096;-57
2023/02/27 14:14:33;;;;;;;1.00;0.38;;;;;;;13.62;22.48;101081.63;10336681;28;20053;-56
2023/02/27 14:19:44;;;;;;;0.57;0.30;;;;;;;12.20;24.78;101077.34;10310587;28;20046;-56
2023/02/27 14:24:54;;;;;;;2.03;0.47;;;;;;;11.26;25.44;101070.72;10327815;28;20739;-55
2023/02/27 14:30:08;;;;;;;0.80;0.50;;;;;;;16.86;20.15;101075.06;10323020;28;20823;-57
2023/02/27 14:35:15;;;;;;;0.95;0.30;;;;;;;15.13;20.97;101078.97;10332978;28;20840;-57
2023/02/27 14:40:25;;;;;;;0.80;0.50;;;;;;;16.01;20.20;101073.94;10335009;28;20057;-56
2023/02/27 14:45:31;;;;;;;2.53;0.50;;;;;;;12.64;23.69;101076.75;10328629;28;20045;-57
2023/02/27 14:50:36;;;;;;;3.72;0.80;;;;;;;11.22;25.66;101084.38;10330550;28;20045;-55
2023/02/27 14:55:38;;;;;;;35.40;7.18;;;;;;;10.59;26.27;101087.72;10327536;28;20175;-56
2023/02/27 15:00:43;;;;;;;1.85;0.45;;;;;;;10.65;26.53;101085.63;10333899;28;20911;-57
2023/02/27 15:05:47;;;;;;;2.40;0.90;;;;;;;10.35;26.94;101078.72;10342640;28;20053;-56
2023/02/27 15:10:51;;;;;;;0.70;0.45;;;;;;;9.94;27.54;101088.44;10329779;28;20132;-56
2023/02/27 15:16:32;;;;;;;1.45;0.40;;;;;;;9.74;27.42;101081.72;10339636;28;20096;-58
2023/02/27 15:21:39;;;;;;;1.23;0.70;;;;;;;9.44;27.71;101081.84;10317850;28;20057;-55
2023/02/27 15:26:41;;;;;;;1.17;0.50;;;;;;;9.17;27.66;101082.63;10329084;28;20708;-55
2023/02/27 15:31:45;;;;;;;2.30;0.57;;;;;;;9.06;29.16;101083.28;10330238;28;20052;-55
2023/02/27 15:36:53;;;;;;;0.82;0.50;;;;;;;8.83;29.29;101090.84;10330982;28;20053;-54
2023/02/27 15:41:58;;;;;;;0.82;0.43;;;;;;;8.44;29.67;101086.94;10335175;28;20425;-57
2023/02/27 15:47:00;;;;;;;1.45;0.70;;;;;;;8.23;29.96;101096.97;10325940;28;20549;-57
2023/02/27 15:52:23;;;;;;;0.80;0.57;;;;;;;8.06;30.95;101094.41;10326008;28;20061;-60
2023/02/27 15:57:25;;;;;;;2.00;0.60;;;;;;;8.05;31.07;101100.66;10330118;28;20049;-56
2023/02/27 16:02:37;;;;;;;1.58;0.50;;;;;;;7.79;31.24;101093.22;10335511;28;20432;-56
2023/02/27 16:07:42;;;;;;;1.65;0.77;;;;;;;7.65;31.89;101101.06;10329080;28;20518;-57
2023/02/27 16:12:43;;;;;;;1.60;0.82;;;;;;;7.64;32.01;101117.06;10329572;28;20950;-60
2023/02/27 16:18:24;;;;;;;1.77;0.77;;;;;;;7.40;32.82;101126.25;10340617;28;20852;-58
2023/02/27 16:23:30;;;;;;;1.70;0.52;;;;;;;7.32;33.14;101139.03;10338437;28;20572;-58
2023/02/27 16:28:36;;;;;;;1.27;0.60;;;;;;;7.11;33.12;101124.28;10323185;28;20078;-58
2023/02/27 16:33:38;;;;;;;1.58;0.95;;;;;;;7.07;33.99;101147.38;10323560;28;20180;-57
2023/02/27 16:38:41;;;;;;;1.10;0.57;;;;;;;7.02;33.87;101157.38;10330144;28;20061;-58
2023/02/27 16:43:44;;;;;;;1.02;0.60;;;;;;;6.94;33.54;101163.06;10303103;28;20947;-57
2023/02/27 16:48:52;;;;;;;1.83;0.50;;;;;;;6.75;33.91;101154.34;10324004;28;20057;-58
2023/02/27 16:53:55;;;;;;;1.92;0.93;;;;;;;6.80;34.26;101170.81;10320964;28;20054;-58
2023/02/27 16:58:56;;;;;;;1.73;0.85;;;;;;;6.66;33.58;101177.66;10334259;28;20918;-59
2023/02/27 17:03:58;;;;;;;1.17;0.77;;;;;;;6.52;33.13;101178.34;10331900;28;20581;-57
2023/02/27 17:09:00;;;;;;;1.40;0.63;;;;;;;6.36;33.18;101190.59;10346731;28;20064;-65
2023/02/27 17:14:01;;;;;;;2.15;0.47;;;;;;;6.31;33.45;101182.88;10329415;28;20410;-57
2023/02/27 17:19:03;;;;;;;1.10;0.73;;;;;;;6.36;34.01;101195.88;10328058;28;20053;-58
2023/02/27 17:24:05;;;;;;;1.35;0.65;;;;;;;6.21;34.68;101194.81;10346696;28;20115;-57
2023/02/27 17:29:08;;;;;;;2.58;0.77;;;;;;;6.08;34.89;101185.75;10335124;28;20055;-58
2023/02/27 17:34:10;;;;;;;1.77;0.88;;;;;;;6.13;35.21;101210.22;10349772;28;20115;-58
2023/02/27 17:39:14;;;;;;;1.92;0.98;;;;;;;5.93;35.85;101204.03;10349179;28;20133;-58
2023/02/27 17:44:16;;;;;;;1.37;0.83;;;;;;;5.81;36.15;101213.38;10328205;28;20045;-57
2023/02/27 17:49:17;;;;;;;1.70;0.73;;;;;;;5.70;36.59;101212.13;10333361;28;20176;-57
2023/02/27 17:54:20;;;;;;;1.55;0.90;;;;;;;5.47;36.56;101196.38;10340597;28;20062;-56
2023/02/27 17:59:22;;;;;;;1.52;1.00;;;;;;;5.36;37.05;101209.19;10329960;28;20056;-56
2023/02/27 18:04:24;;;;;;;1.90;0.88;;;;;;;5.37;37.04;101236.44;10338626;28;20513;-58
2023/02/27 18:09:25;;;;;;;2.75;1.23;;;;;;;5.27;37.40;101231.56;10335887;28;20060;-56
2023/02/27 18:14:27;;;;;;;3.22;1.67;;;;;;;5.10;37.58;101226.13;10339066;28;20206;-56
2023/02/27 18:19:28;;;;;;;2.35;1.50;;;;;;;5.18;37.53;101242.53;10329488;28;20064;-56
2023/02/27 18:24:33;;;;;;;1.70;1.23;;;;;;;4.81;37.37;101201.81;10325400;28;20989;-56
2023/02/27 18:29:35;;;;;;;3.35;1.27;;;;;;;5.07;37.85;101245.59;10346051;28;20041;-56
2023/02/27 18:34:39;;;;;;;3.55;1.20;;;;;;;4.96;37.78;101245.19;10330364;28;20690;-57
2023/02/27 18:39:41;;;;;;;1.33;1.05;;;;;;;4.94;38.34;101247.06;10332252;28;20187;-58
2023/02/27 18:44:44;;;;;;;1.20;0.80;;;;;;;4.85;38.58;101237.72;10331266;28;20455;-57
2023/02/27 18:49:45;;;;;;;1.60;1.00;;;;;;;4.93;38.68;101243.53;10332373;28;20068;-59
2023/02/27 18:54:47;;;;;;;1.98;1.27;;;;;;;4.86;38.99;101236.78;10326382;28;21510;-57
2023/02/27 18:59:48;;;;;;;2.35;1.00;;;;;;;4.74;39.23;101221.47;10330895;28;20084;-56
2023/02/27 19:04:50;;;;;;;2.47;1.17;;;;;;;4.64;39.90;101230.66;10322474;28;20477;-58
2023/02/27 19:09:52;;;;;;;3.25;1.65;;;;;;;4.62;40.29;101236.00;10338513;28;20083;-56
2023/02/27 19:14:54;;;;;;;5.75;5.05;;;;;;;4.63;40.72;101244.78;10323663;28;20060;-57
2023/02/27 19:19:57;;;;;;;3.67;3.38;;;;;;;4.59;41.08;101252.81;10321479;28;20057;-58
2023/02/27 19:24:59;;;;;;;4.07;3.67;;;;;;;4.51;41.76;101256.69;10314386;28;20941;-57
2023/02/27 19:30:00;;;;;;;3.67;2.67;;;;;;;4.40;42.19;101249.19;10332463;28;20156;-57
2023/02/27 19:35:02;;;;;;;3.13;2.30;;;;;;;4.41;42.28;101248.25;10331006;28;20105;-57
2023/02/27 19:40:04;;;;;;;2.92;2.30;;;;;;;4.46;42.49;101259.50;10337502;28;20587;-57
2023/02/27 19:45:06;;;;;;;2.35;2.03;;;;;;;4.37;42.63;101251.94;10328960;28;20516;-57
2023/02/27 19:50:09;;;;;;;2.50;1.73;;;;;;;4.49;43.72;101267.28;10328350;28;21519;-57
2023/02/27 19:55:10;;;;;;;2.22;1.75;;;;;;;4.47;42.95;101263.81;10327668;28;20049;-57
2023/02/27 20:00:15;;;;;;;3.28;2.30;;;;;;;4.38;42.70;101261.56;10322386;28;20057;-57
2023/02/27 20:05:17;;;;;;;3.50;1.90;;;;;;;4.47;42.95;101281.44;10325897;28;20054;-57
2023/02/27 20:10:18;;;;;;;9.35;2.60;;;;;;;4.42;43.19;101271.91;10323148;28;20091;-57
2023/02/27 20:15:20;;;;;;;2.90;2.38;;;;;;;4.46;43.40;101283.22;10319452;28;20045;-57
2023/02/27 20:20:21;;;;;;;3.15;2.38;;;;;;;4.46;43.38;101279.72;10322116;28;20064;-57
2023/02/27 20:25:23;;;;;;;2.50;2.00;;;;;;;4.38;43.36;101266.81;10328856;28;20132;-57
2023/02/27 20:30:24;;;;;;;2.72;1.90;;;;;;;4.45;43.68;101283.28;10329444;28;20135;-56
2023/02/27 20:35:26;;;;;;;3.70;2.10;;;;;;;4.36;44.03;101281.84;10335120;28;20064;-56
2023/02/27 20:40:27;;;;;;;2.42;2.05;;;;;;;4.36;44.28;101273.94;10330185;28;20049;-56
2023/02/27 20:45:30;;;;;;;3.88;1.70;;;;;;;4.35;44.50;101264.31;10327199;28;20063;-58
2023/02/27 20:50:33;;;;;;;2.05;1.55;;;;;;;4.18;44.69;101239.44;10332847;28;20053;-57
2023/02/27 20:55:34;;;;;;;2.50;2.10;;;;;;;4.25;44.95;101256.75;10342361;28;20058;-56
2023/02/27 21:00:36;;;;;;;3.55;2.70;;;;;;;4.27;45.48;101276.94;10352108;28;20104;-56
2023/02/27 21:05:45;;;;;;;2.60;2.40;;;;;;;4.16;45.59;101259.75;10330735;28;20059;-57
2023/02/27 21:10:50;;;;;;;2.55;1.80;;;;;;;4.09;45.75;101260.88;10333949;28;20046;-56
2023/02/27 21:15:52;;;;;;;3.38;1.75;;;;;;;4.21;45.93;101270.13;10333074;28;20308;-56
2023/02/27 21:20:55;;;;;;;15.93;11.27;;;;;;;4.17;46.07;101277.25;10354829;28;20902;-56
2023/02/27 21:25:57;;;;;;;6.80;5.30;;;;;;;4.18;46.14;101276.34;10335224;28;20053;-56
2023/02/27 21:31:04;;;;;;;2.03;1.88;;;;;;;4.14;46.26;101272.09;10329014;28;20616;-56
2023/02/27 21:36:08;;;;;;;2.92;1.95;;;;;;;4.05;46.45;101264.53;10334684;28;20041;-56
2023/02/27 21:41:11;;;;;;;2.70;2.50;;;;;;;4.07;46.61;101275.91;10333669;28;20053;-56
2023/02/27 21:46:12;;;;;;;3.70;2.13;;;;;;;4.03;46.79;101266.38;10318516;28;20053;-57
2023/02/27 21:51:14;;;;;;;3.03;2.03;;;;;;;3.95;45.78;101263.16;10335006;28;20121;-57
2023/02/27 21:56:18;;;;;;;3.47;2.13;;;;;;;3.77;45.69;101260.31;10327386;28;20061;-57
2023/02/27 22:01:22;;;;;;;3.22;2.42;;;;;;;3.67;45.74;101245.75;10348144;28;20081;-62
2023/02/27 22:06:27;;;;;;;1.65;1.13;;;;;;;3.66;45.10;101257.19;10332069;28;20069;-58
2023/02/27 22:11:29;;;;;;;1.30;1.20;;;;;;;3.57;45.15;101247.81;10318674;28;20064;-55
2023/02/27 22:16:33;;;;;;;1.17;0.97;;;;;;;3.53;45.65;101268.16;10333817;28;20357;-55
2023/02/27 22:21:36;;;;;;;2.20;2.00;;;;;;;3.57;45.61;101268.88;10331325;28;20050;-54
2023/02/27 22:26:38;;;;;;;1.70;1.60;;;;;;;3.51;45.65;101264.72;10331249;28;20061;-55
2023/02/27 22:31:39;;;;;;;2.20;1.92;;;;;;;3.48;45.91;101264.84;10326763;28;20054;-53
2023/02/27 22:36:41;;;;;;;3.13;2.03;;;;;;;3.25;45.77;101238.44;10344911;28;20060;-55
2023/02/27 22:41:44;;;;;;;2.67;2.10;;;;;;;3.41;45.93;101265.94;10355428;28;20041;-55
2023/02/27 22:46:48;;;;;;;5.05;3.15;;;;;;;3.38;46.16;101258.16;10365112;28;20141;-55
2023/02/27 22:51:51;;;;;;;2.33;2.13;;;;;;;3.48;46.07;101256.06;10363749;28;20119;-56
2023/02/27 22:56:52;;;;;;;2.65;1.83;;;;;;;3.46;46.09;101256.09;10363490;28;20057;-56
2023/02/27 23:01:58;;;;;;;2.97;1.92;;;;;;;3.54;46.03;101258.47;10358824;28;20076;-55
2023/02/27 23:06:59;;;;;;;2.58;1.88;;;;;;;3.53;46.19;101257.63;10359291;28;20052;-56
2023/02/27 23:12:03;;;;;;;2.47;1.90;;;;;;;3.54;46.19;101261.09;10361563;28;20144;-56
2023/02/27 23:17:04;;;;;;;2.47;1.30;;;;;;;3.52;46.36;101261.16;10359891;28;20049;-56
2023/02/27 23:22:06;;;;;;;2.65;1.70;;;;;;;3.45;46.75;101270.19;10358882;28;20061;-56
2023/02/27 23:27:10;;;;;;;2.33;1.95;;;;;;;3.39;47.12;101259.84;10359930;28;20046;-56
2023/02/27 23:32:26;;;;;;;2.00;1.80;;;;;;;3.39;47.20;101264.28;10359712;28;20060;-54
2023/02/27 23:37:28;;;;;;;2.38;1.75;;;;;;;3.28;47.63;101262.00;10357928;28;20512;-54
2023/02/27 23:42:30;;;;;;;2.92;2.30;;;;;;;3.07;48.14;101248.66;10359922;28;20702;-54